Time;durP1;ratioP1;P1;durP2;ratioP2;P2;SDS_P1;SDS_P2;PMS_P1;PMS_P2;Temp;Humidity;BMP_temperature;BMP_pressure;BME280_temperature;BME280_humidity;BME280_pressure;Samples;Min_cycle;Max_cycle;Signal;HPM_P1;HPM_P2
2023/09/04 03:58:57;;;;;;;4.43;2.97;;;;;;;14.74;100.00;101116.06;5235585;34;34177;-84
2023/09/04 04:02:00;;;;;;;5.43;3.10;;;;;;;14.70;100.00;101121.00;5236612;34;33991;-84
2023/09/04 04:05:03;;;;;;;3.53;3.22;;;;;;;14.68;100.00;101119.50;5225925;34;33419;-84
2023/09/04 04:08:06;;;;;;;4.18;3.00;;;;;;;14.66;100.00;101122.41;5224398;34;34412;-84
2023/09/04 04:11:10;;;;;;;5.35;4.10;;;;;;;14.64;100.00;101120.91;5224584;34;33445;-84
2023/09/04 04:14:12;;;;;;;5.55;3.78;;;;;;;14.70;100.00;101117.47;5236179;34;35258;-84
2023/09/04 04:17:15;;;;;;;4.35;3.10;;;;;;;14.69;100.00;101119.34;5224213;34;33925;-84
2023/09/04 04:20:18;;;;;;;11.02;3.40;;;;;;;14.68;100.00;101127.63;5224020;34;34879;-84
2023/09/04 04:23:23;;;;;;;4.10;3.70;;;;;;;14.64;100.00;101132.59;5239596;34;34779;-84
2023/09/04 04:26:25;;;;;;;3.87;3.58;;;;;;;14.73;100.00;101125.22;5239243;34;35079;-84
2023/09/04 04:29:29;;;;;;;5.10;3.90;;;;;;;14.77;100.00;101123.84;5239174;34;34233;-84
2023/09/04 04:32:51;;;;;;;5.32;3.70;;;;;;;14.69;100.00;101123.91;5227984;34;35584;-88
2023/09/04 04:35:54;;;;;;;4.87;3.80;;;;;;;14.78;100.00;101143.66;5225391;34;34132;-88
2023/09/04 04:38:58;;;;;;;4.60;3.72;;;;;;;14.76;100.00;101143.81;5235346;34;34088;-85
2023/09/04 04:42:02;;;;;;;4.75;3.55;;;;;;;14.84;100.00;101151.03;5235388;34;35011;-84
2023/09/04 04:45:06;;;;;;;4.82;3.50;;;;;;;14.90;100.00;101142.97;5223971;34;34770;-84
2023/09/04 04:48:09;;;;;;;4.90;3.17;;;;;;;14.93;100.00;101149.91;5224124;34;33515;-84
2023/09/04 04:51:12;;;;;;;4.80;3.15;;;;;;;15.05;100.00;101150.28;5235566;34;33899;-84
2023/09/04 04:54:16;;;;;;;4.62;3.08;;;;;;;15.04;100.00;101141.28;5235435;34;34127;-84
2023/09/04 04:57:20;;;;;;;3.90;3.10;;;;;;;15.10;100.00;101161.41;5224153;34;33638;-84
2023/09/04 05:00:26;;;;;;;3.95;3.40;;;;;;;15.14;100.00;101174.38;5213288;34;33768;-84
2023/09/04 05:03:28;;;;;;;5.40;3.25;;;;;;;15.22;100.00;101178.88;5223907;34;34422;-84
2023/09/04 05:06:33;;;;;;;3.50;3.08;;;;;;;15.28;100.00;101172.69;5235867;34;33495;-84
2023/09/04 05:09:35;;;;;;;3.30;3.00;;;;;;;15.29;100.00;101170.81;5208218;34;34857;-84
2023/09/04 05:12:38;;;;;;;5.37;3.45;;;;;;;15.38;100.00;101166.97;5218909;34;33623;-84
2023/09/04 05:15:41;;;;;;;4.47;3.45;;;;;;;15.51;100.00;101172.56;5220195;34;36264;-84
2023/09/04 05:18:44;;;;;;;3.87;2.97;;;;;;;15.63;100.00;101168.31;5205638;34;34705;-84
2023/09/04 05:21:47;;;;;;;4.50;3.20;;;;;;;15.75;100.00;101163.25;5211806;34;34525;-84
2023/09/04 05:24:59;;;;;;;3.12;2.83;;;;;;;15.84;100.00;101174.81;5215952;34;34781;-84
2023/09/04 05:28:03;;;;;;;5.57;3.25;;;;;;;15.95;100.00;101163.47;5225541;34;34565;-84
2023/09/04 05:31:06;;;;;;;4.22;3.10;;;;;;;16.14;100.00;101170.09;5219307;33;33903;-84
2023/09/04 05:34:08;;;;;;;7.32;3.45;;;;;;;16.23;100.00;101176.25;5242591;33;33897;-84
2023/09/04 05:37:12;;;;;;;3.40;3.10;;;;;;;16.35;100.00;101179.25;5231504;33;35120;-84
2023/09/04 05:40:15;;;;;;;4.07;3.42;;;;;;;16.45;100.00;101179.78;5255354;33;34717;-84
2023/09/04 05:43:18;;;;;;;4.68;3.22;;;;;;;16.52;100.00;101181.50;5242930;33;33490;-84
2023/09/04 05:46:20;;;;;;;4.45;3.10;;;;;;;16.65;100.00;101185.38;5230772;33;34754;-84
2023/09/04 05:49:24;;;;;;;3.87;3.25;;;;;;;16.76;100.00;101188.41;5242540;33;33606;-84
2023/09/04 05:52:26;;;;;;;5.15;3.47;;;;;;;16.94;100.00;101187.06;5242726;33;33638;-84
2023/09/04 05:55:29;;;;;;;4.25;3.60;;;;;;;16.94;100.00;101187.91;5244928;33;34674;-84
2023/09/04 05:58:33;;;;;;;6.80;3.45;;;;;;;17.09;100.00;101181.50;5256599;33;33780;-83
2023/09/04 06:01:36;;;;;;;5.15;3.37;;;;;;;17.17;100.00;101170.44;5227943;34;34103;-84
2023/09/04 06:04:39;;;;;;;3.15;2.85;;;;;;;17.32;100.00;101182.03;5216300;34;33396;-84
2023/09/04 06:07:42;;;;;;;4.32;3.37;;;;;;;17.44;100.00;101171.41;5213837;34;35195;-84
2023/09/04 06:10:45;;;;;;;4.62;3.03;;;;;;;17.58;100.00;101181.31;5223666;34;35035;-84
2023/09/04 06:13:50;;;;;;;4.47;3.20;;;;;;;17.72;100.00;101181.31;5198682;34;33572;-84
2023/09/04 06:16:53;;;;;;;3.33;3.03;;;;;;;17.82;100.00;101179.94;5219943;34;35419;-84
2023/09/04 06:19:56;;;;;;;3.65;2.70;;;;;;;17.98;100.00;101178.69;5226377;34;34322;-84
2023/09/04 06:23:01;;;;;;;3.58;2.85;;;;;;;18.13;100.00;101173.06;5236873;33;34050;-84
2023/09/04 06:26:04;;;;;;;5.25;3.30;;;;;;;18.20;99.69;101182.09;5213362;34;35226;-84
2023/09/04 06:29:07;;;;;;;4.12;3.30;;;;;;;18.23;99.07;101181.66;5201652;34;34552;-84
2023/09/04 06:32:13;;;;;;;3.17;2.92;;;;;;;18.44;98.19;101183.34;5211703;34;34048;-84
2023/09/04 06:35:16;;;;;;;4.75;3.30;;;;;;;18.53;96.59;101184.81;5225420;34;33811;-84
2023/09/04 06:38:19;;;;;;;3.47;3.00;;;;;;;18.78;94.96;101176.84;5208552;34;34017;-86
2023/09/04 06:41:21;;;;;;;5.30;2.87;;;;;;;18.98;93.64;101195.06;5207570;34;33539;-88
2023/09/04 06:44:24;;;;;;;5.72;3.40;;;;;;;19.01;92.76;101190.03;5217022;34;31942;-89
2023/09/04 06:47:27;;;;;;;5.05;3.05;;;;;;;19.25;92.69;101188.50;5197437;34;33892;-89
2023/09/04 06:50:30;;;;;;;4.85;3.17;;;;;;;19.32;89.87;101201.28;5220739;34;34766;-85
2023/09/04 06:53:33;;;;;;;4.82;2.90;;;;;;;19.54;89.15;101202.66;5213153;34;33906;-85
2023/09/04 06:56:36;;;;;;;3.70;2.87;;;;;;;19.75;89.18;101217.94;5237413;34;33831;-84
2023/09/04 06:59:39;;;;;;;5.03;2.78;;;;;;;19.78;85.62;101206.56;5224970;34;33750;-84
2023/09/04 07:02:49;;;;;;;3.85;2.90;;;;;;;19.87;85.83;101205.25;5212703;34;32452;-84
2023/09/04 07:05:59;;;;;;;3.87;2.80;;;;;;;20.11;83.18;101195.41;5208845;34;33459;-85
2023/09/04 07:09:02;;;;;;;2.80;2.53;;;;;;;20.10;82.74;101212.06;5214439;34;34508;-85
2023/09/04 07:12:06;;;;;;;3.03;2.58;;;;;;;20.22;84.03;101214.91;5213958;34;34806;-84
2023/09/04 07:15:09;;;;;;;6.05;2.85;;;;;;;20.12;81.73;101218.97;5238342;34;33802;-84
2023/09/04 07:18:12;;;;;;;3.42;2.55;;;;;;;20.28;82.28;101214.03;5213851;34;34942;-84
2023/09/04 07:21:15;;;;;;;4.45;2.80;;;;;;;20.44;81.24;101220.84;5209250;34;32417;-85
2023/09/04 07:24:19;;;;;;;3.62;2.50;;;;;;;20.67;78.13;101221.09;5225345;34;34667;-84
2023/09/04 07:27:22;;;;;;;8.00;3.15;;;;;;;20.61;78.34;101211.88;5226089;34;31701;-84
2023/09/04 07:30:25;;;;;;;3.78;2.70;;;;;;;20.81;77.56;101216.34;5213412;34;33526;-84
2023/09/04 07:33:27;;;;;;;5.40;3.08;;;;;;;20.97;74.62;101207.56;5220466;34;34630;-83
2023/09/04 07:36:30;;;;;;;4.30;2.85;;;;;;;21.21;74.31;101203.09;5207545;34;34795;-84
2023/09/04 07:39:33;;;;;;;4.07;2.75;;;;;;;21.31;72.28;101198.97;5236351;34;34305;-84
2023/09/04 07:42:37;;;;;;;3.60;2.65;;;;;;;21.21;72.31;101199.53;5223194;34;34832;-84
2023/09/04 07:45:39;;;;;;;3.17;2.67;;;;;;;21.31;73.27;101209.94;5220073;34;33625;-84
2023/09/04 07:48:42;;;;;;;3.35;2.40;;;;;;;21.53;72.43;101216.66;5224238;34;33868;-84
2023/09/04 07:51:45;;;;;;;5.03;2.72;;;;;;;21.61;69.90;101207.25;5220170;34;33802;-84
2023/09/04 07:54:50;;;;;;;3.05;2.53;;;;;;;21.79;69.52;101212.72;5223600;34;33749;-84
2023/09/04 07:57:53;;;;;;;3.80;2.55;;;;;;;21.90;69.14;101211.91;5211347;34;33513;-84
2023/09/04 08:00:56;;;;;;;2.85;2.47;;;;;;;22.09;67.92;101203.66;5213386;34;35200;-84
2023/09/04 08:04:01;;;;;;;3.97;2.30;;;;;;;22.17;65.67;101209.66;5230833;34;34851;-83
2023/09/04 08:07:05;;;;;;;2.42;2.22;;;;;;;22.24;64.98;101219.69;5232204;34;34428;-83
2023/09/04 08:10:08;;;;;;;9.25;2.17;;;;;;;22.34;64.84;101211.72;5196854;34;33451;-84
2023/09/04 08:13:16;;;;;;;2.15;1.95;;;;;;;22.61;62.55;101209.38;5220990;34;33664;-84
2023/09/04 08:16:19;;;;;;;2.50;1.98;;;;;;;22.93;61.54;101211.75;5232596;34;33879;-84
2023/09/04 08:19:22;;;;;;;2.33;2.10;;;;;;;23.02;58.26;101222.19;5207768;34;34294;-83
2023/09/04 08:22:25;;;;;;;2.58;2.15;;;;;;;23.06;56.72;101208.81;5207390;34;34543;-83
2023/09/04 08:25:28;;;;;;;3.58;1.87;;;;;;;22.91;55.65;101212.00;5195715;34;33420;-83
2023/09/04 08:28:31;;;;;;;2.05;1.85;;;;;;;22.98;54.14;101217.41;5224980;34;33572;-83
2023/09/04 08:31:34;;;;;;;2.62;2.10;;;;;;;22.92;53.27;101215.59;5226537;34;35229;-83
2023/09/04 08:34:38;;;;;;;3.10;2.30;;;;;;;22.67;53.54;101213.94;5216246;34;33780;-83
2023/09/04 08:37:41;;;;;;;2.92;1.65;;;;;;;22.91;54.33;101217.50;5231240;34;34103;-83
2023/09/04 08:40:44;;;;;;;2.12;1.80;;;;;;;22.83;53.48;101217.84;5214640;34;34153;-82
2023/09/04 08:43:49;;;;;;;3.33;2.08;;;;;;;22.99;52.29;101205.34;5228348;34;34334;-83
2023/09/04 08:46:53;;;;;;;2.45;1.92;;;;;;;23.33;52.32;101224.78;5230714;34;34153;-88
2023/09/04 08:49:57;;;;;;;4.60;2.00;;;;;;;23.44;51.25;101216.50;5226026;34;34081;-88
2023/09/04 08:53:00;;;;;;;8.02;2.08;;;;;;;23.70;51.54;101215.12;5208251;34;34573;-88
2023/09/04 08:56:06;;;;;;;6.55;2.20;;;;;;;23.34;51.05;101209.94;5218936;34;33930;-84
2023/09/04 08:59:10;;;;;;;4.93;2.15;;;;;;;23.43;53.38;101217.59;5203822;34;33140;-84
2023/09/04 09:02:16;;;;;;;2.92;2.12;;;;;;;23.68;51.93;101220.00;5224291;34;33756;-84
2023/09/04 09:05:20;;;;;;;3.35;1.70;;;;;;;23.90;54.54;101217.47;5230526;34;34084;-84
2023/09/04 09:08:24;;;;;;;3.22;1.80;;;;;;;23.77;53.52;101215.00;5225715;34;33591;-82
2023/09/04 09:11:27;;;;;;;3.92;2.12;;;;;;;23.91;50.80;101218.28;5223485;34;35297;-82
2023/09/04 09:14:31;;;;;;;2.05;1.85;;;;;;;24.07;51.14;101217.47;5217977;34;34818;-82
2023/09/04 09:17:33;;;;;;;3.80;2.05;;;;;;;23.82;50.85;101217.84;5217746;34;33627;-82
2023/09/04 09:20:39;;;;;;;1.87;1.77;;;;;;;24.01;51.14;101220.37;5214366;34;34870;-82
2023/09/04 09:23:42;;;;;;;3.12;1.83;;;;;;;24.33;54.01;101215.19;5214348;34;33427;-83
2023/09/04 09:26:47;;;;;;;2.92;1.85;;;;;;;24.16;48.02;101199.50;5221921;34;33858;-83
2023/09/04 09:29:51;;;;;;;3.67;2.05;;;;;;;24.29;50.31;101206.59;5234194;34;33790;-84
2023/09/04 09:32:55;;;;;;;2.72;1.85;;;;;;;24.77;51.54;101199.69;5223611;34;33897;-84
2023/09/04 09:35:58;;;;;;;2.55;1.50;;;;;;;24.59;48.63;101189.78;5213631;34;33623;-84
2023/09/04 09:39:01;;;;;;;3.00;2.22;;;;;;;24.26;47.29;101193.34;5206026;34;34844;-84
2023/09/04 09:42:04;;;;;;;4.95;2.15;;;;;;;24.51;52.74;101203.13;5210124;34;33797;-84
2023/09/04 09:45:07;;;;;;;5.22;1.65;;;;;;;24.67;48.49;101197.59;5206130;34;33789;-83
2023/09/04 09:48:11;;;;;;;2.50;1.75;;;;;;;24.63;49.11;101195.63;5218430;34;33779;-83
2023/09/04 09:51:15;;;;;;;5.43;1.90;;;;;;;24.54;46.83;101192.47;5218912;34;34554;-84
2023/09/04 09:54:34;;;;;;;2.22;1.75;;;;;;;24.85;47.56;101201.19;5220500;34;33836;-84
2023/09/04 09:57:36;;;;;;;1.85;1.62;;;;;;;25.02;46.62;101196.47;5224582;34;34034;-84
2023/09/04 10:00:40;;;;;;;3.12;1.73;;;;;;;24.92;45.63;101193.56;5220922;34;33683;-84
2023/09/04 10:03:46;;;;;;;2.55;1.77;;;;;;;25.16;46.02;101194.22;5225173;34;33630;-83
2023/09/04 10:06:52;;;;;;;3.03;1.83;;;;;;;25.53;45.18;101190.81;5208577;34;33565;-84
2023/09/04 10:10:03;;;;;;;1.92;1.67;;;;;;;25.16;45.58;101182.37;5220699;34;34765;-84
2023/09/04 10:13:16;;;;;;;2.25;1.77;;;;;;;25.40;43.65;101189.28;5220510;34;34662;-84
2023/09/04 10:16:31;;;;;;;1.73;1.60;;;;;;;25.55;43.42;101175.66;5223491;34;34480;-84
2023/09/04 10:19:36;;;;;;;3.37;2.05;;;;;;;25.57;44.62;101175.44;5223253;34;33534;-87
2023/09/04 10:23:00;;;;;;;3.10;2.03;;;;;;;25.30;43.10;101183.63;5206979;34;33881;-85
2023/09/04 10:26:20;;;;;;;1.90;1.73;;;;;;;25.74;42.44;101189.09;5229838;34;34029;-84
2023/09/04 10:29:28;;;;;;;2.12;1.73;;;;;;;25.91;43.21;101189.03;5225245;34;33755;-84
2023/09/04 10:32:32;;;;;;;2.25;2.05;;;;;;;26.39;42.84;101188.12;5241332;34;34890;-83
2023/09/04 10:35:35;;;;;;;2.10;1.73;;;;;;;26.35;41.21;101184.19;5213930;34;33861;-84
2023/09/04 10:38:38;;;;;;;1.65;1.55;;;;;;;26.58;39.35;101166.47;5212354;34;34521;-83
2023/09/04 10:41:44;;;;;;;2.12;1.60;;;;;;;26.27;40.68;101183.84;5224323;34;34058;-83
2023/09/04 10:44:49;;;;;;;2.55;2.00;;;;;;;25.99;40.90;101178.38;5216614;33;33484;-84
2023/09/04 10:47:53;;;;;;;4.10;1.60;;;;;;;26.02;39.49;101175.09;5217851;33;33920;-84
2023/09/04 10:50:55;;;;;;;1.70;1.60;;;;;;;26.25;39.45;101181.38;5215171;33;33760;-84
2023/09/04 10:54:25;;;;;;;2.35;2.00;;;;;;;26.30;38.99;101175.91;5207013;34;34881;-84
2023/09/04 10:57:57;;;;;;;3.33;1.62;;;;;;;26.78;39.03;101174.06;5203235;34;33413;-84
2023/09/04 11:01:46;;;;;;;2.37;1.60;;;;;;;27.01;38.43;101175.56;5229064;34;33765;-84
2023/09/04 11:04:51;;;;;;;1.50;1.33;;;;;;;27.90;39.43;101170.13;5226355;34;33956;-84
2023/09/04 11:07:54;;;;;;;1.92;1.50;;;;;;;28.04;36.08;101169.31;5221926;34;33932;-84
2023/09/04 11:11:05;;;;;;;2.12;1.65;;;;;;;27.47;35.66;101173.06;5222262;33;34802;-84
2023/09/04 11:14:11;;;;;;;2.33;1.70;;;;;;;27.67;36.12;101177.81;5235876;34;33825;-84
2023/09/04 11:17:17;;;;;;;4.18;1.55;;;;;;;27.87;34.80;101165.13;5219163;34;34259;-84
2023/09/04 11:20:26;;;;;;;1.77;1.65;;;;;;;27.55;35.13;101161.47;5211081;34;33811;-83
2023/09/04 11:23:34;;;;;;;4.97;1.75;;;;;;;28.01;34.40;101157.97;5224268;34;34808;-84
2023/09/04 11:26:38;;;;;;;7.07;2.12;;;;;;;28.11;34.40;101158.00;5224459;34;33241;-84
2023/09/04 11:29:41;;;;;;;2.25;1.67;;;;;;;29.05;33.12;101155.69;5214432;34;33387;-83
2023/09/04 11:32:45;;;;;;;1.83;1.52;;;;;;;29.89;30.46;101154.97;5229617;33;33650;-84
2023/09/04 11:35:57;;;;;;;1.77;1.55;;;;;;;29.83;30.94;101159.72;5218566;34;34816;-84
2023/09/04 11:39:04;;;;;;;4.65;2.00;;;;;;;30.45;30.95;101151.75;5221395;34;35497;-84
2023/09/04 11:42:08;;;;;;;1.50;1.40;;;;;;;31.60;28.25;101149.88;5209569;33;34504;-83
2023/09/04 11:45:11;;;;;;;1.35;1.25;;;;;;;33.20;27.14;101151.59;5218457;33;33788;-83
2023/09/04 11:48:15;;;;;;;1.95;1.42;;;;;;;33.82;25.60;101146.31;5230840;34;33800;-84
2023/09/04 11:51:18;;;;;;;1.85;1.40;;;;;;;33.33;26.92;101145.16;5214887;34;34701;-83
2023/09/04 11:54:36;;;;;;;2.17;1.42;;;;;;;33.89;25.31;101150.62;5200102;34;33543;-84
2023/09/04 11:57:39;;;;;;;2.12;1.40;;;;;;;35.93;23.68;101144.06;5204163;34;34053;-83
2023/09/04 12:00:42;;;;;;;1.73;1.30;;;;;;;35.98;22.63;101135.47;5229667;34;35362;-83
2023/09/04 12:03:45;;;;;;;1.70;1.40;;;;;;;36.03;23.69;101138.09;5223019;34;34397;-84
2023/09/04 12:06:48;;;;;;;1.35;0.88;;;;;;;37.96;21.56;101134.06;5215860;34;33336;-84
2023/09/04 12:09:51;;;;;;;1.67;1.17;;;;;;;38.25;20.50;101121.84;5216548;34;33634;-84
2023/09/04 12:12:54;;;;;;;4.72;1.37;;;;;;;38.04;20.46;101122.75;5212368;34;34789;-83
2023/09/04 12:16:07;;;;;;;1.40;1.23;;;;;;;33.62;24.79;101130.03;5201224;34;33687;-83
2023/09/04 12:19:25;;;;;;;1.73;1.30;;;;;;;31.53;27.59;101129.97;5222077;34;33523;-88
2023/09/04 12:22:28;;;;;;;1.83;1.40;;;;;;;33.68;25.83;101117.59;5213609;34;33796;-84
2023/09/04 12:25:41;;;;;;;1.58;1.20;;;;;;;36.75;22.81;101112.06;5204875;34;33938;-84
2023/09/04 12:28:44;;;;;;;2.25;1.30;;;;;;;37.84;21.16;101104.72;5239871;33;33634;-84
2023/09/04 12:31:51;;;;;;;3.95;1.75;;;;;;;39.31;20.21;101104.09;5237800;33;34879;-84
2023/09/04 12:35:01;;;;;;;;;;;;;;;39.55;19.20;101102.41;5222065;34;34110;-84
2023/09/04 12:38:04;;;;;;;3.28;1.50;;;;;;;37.55;20.81;101102.81;5228161;34;34226;-84
2023/09/04 12:41:07;;;;;;;1.75;1.37;;;;;;;39.09;20.26;101098.97;5218947;34;35458;-84
2023/09/04 12:44:10;;;;;;;2.37;1.40;;;;;;;36.89;20.98;101105.38;5208107;34;33593;-84
2023/09/04 12:47:13;;;;;;;1.62;1.17;;;;;;;37.35;20.44;101107.25;5219884;34;33923;-84
2023/09/04 12:50:16;;;;;;;1.33;1.23;;;;;;;35.70;22.26;101101.37;5220534;34;34541;-84
2023/09/04 12:53:19;;;;;;;2.53;1.30;;;;;;;37.23;20.51;101095.94;5203927;34;33551;-84
2023/09/04 12:56:22;;;;;;;1.45;1.00;;;;;;;39.68;18.58;101084.28;5206116;34;33844;-84
2023/09/04 12:59:25;;;;;;;5.50;1.50;;;;;;;40.14;18.43;101081.94;5216251;34;33378;-82
2023/09/04 13:02:28;;;;;;;3.17;1.33;;;;;;;36.82;21.09;101083.44;5212420;34;34158;-82
2023/09/04 13:05:31;;;;;;;1.60;1.50;;;;;;;35.74;22.15;101089.19;5209425;34;34918;-82
2023/09/04 13:08:34;;;;;;;1.20;1.10;;;;;;;36.59;21.99;101084.87;5203482;34;34937;-83
2023/09/04 13:11:38;;;;;;;1.33;1.23;;;;;;;35.90;21.01;101085.88;5210365;34;35275;-82
2023/09/04 13:14:41;;;;;;;1.83;1.12;;;;;;;39.72;18.91;101075.91;5236814;34;33902;-82
2023/09/04 13:17:44;;;;;;;2.15;1.48;;;;;;;40.89;16.75;101068.94;5230190;34;33351;-82
2023/09/04 13:20:47;;;;;;;2.65;1.40;;;;;;;39.07;17.87;101056.25;5200944;34;33889;-82
2023/09/04 13:23:50;;;;;;;1.37;1.27;;;;;;;40.61;16.76;101067.03;5211060;34;34001;-82
2023/09/04 13:26:52;;;;;;;1.12;1.08;;;;;;;38.58;18.01;101068.34;5211763;34;33471;-82
2023/09/04 13:29:55;;;;;;;2.15;1.20;;;;;;;34.05;22.32;101070.91;5223999;33;34671;-82
2023/09/04 13:32:58;;;;;;;1.30;0.90;;;;;;;35.43;21.02;101064.13;5230444;34;34088;-82
2023/09/04 13:36:01;;;;;;;1.05;1.05;;;;;;;37.42;19.39;101058.97;5218709;34;33597;-82
2023/09/04 13:39:04;;;;;;;1.27;1.10;;;;;;;35.77;21.14;101060.50;5225347;34;33724;-82
2023/09/04 13:42:07;;;;;;;1.58;1.20;;;;;;;34.62;22.16;101054.25;5226136;34;34288;-82
2023/09/04 13:45:10;;;;;;;2.87;1.20;;;;;;;34.70;22.19;101052.62;5213906;34;34838;-82
2023/09/04 13:48:18;;;;;;;1.65;1.23;;;;;;;32.18;25.31;101048.44;5228805;34;33899;-83
2023/09/04 13:51:24;;;;;;;1.80;1.70;;;;;;;31.29;26.62;101054.84;5210137;34;33720;-83
2023/09/04 13:54:27;;;;;;;1.35;1.27;;;;;;;29.51;28.64;101050.00;5215582;34;34626;-83
2023/09/04 13:57:30;;;;;;;1.45;1.30;;;;;;;29.53;28.82;101052.50;5188611;34;33542;-83
2023/09/04 14:00:33;;;;;;;2.70;1.15;;;;;;;31.80;26.35;101045.72;5202218;34;33835;-83
2023/09/04 14:03:37;;;;;;;2.25;1.60;;;;;;;30.37;26.70;101056.00;5222103;34;34643;-83
2023/09/04 14:06:39;;;;;;;2.87;1.33;;;;;;;29.09;28.30;101053.34;5213796;34;33984;-83
2023/09/04 14:09:42;;;;;;;3.95;1.50;;;;;;;29.64;28.10;101051.34;5216807;34;33936;-87
2023/09/04 14:12:45;;;;;;;2.83;1.75;;;;;;;29.64;28.72;101047.75;5215078;34;33963;-87
2023/09/04 14:15:48;;;;;;;1.37;1.27;;;;;;;28.97;30.65;101052.81;5224593;34;33940;-87
2023/09/04 14:18:52;;;;;;;1.83;1.55;;;;;;;27.70;30.72;101057.44;5234624;34;34879;-83
2023/09/04 14:22:06;;;;;;;1.60;1.50;;;;;;;27.32;30.85;101052.16;5232695;34;34168;-83
2023/09/04 14:25:11;;;;;;;2.22;1.80;;;;;;;27.34;31.11;101049.94;5220135;34;34602;-83
2023/09/04 14:28:16;;;;;;;1.70;1.60;;;;;;;27.11;31.90;101047.63;5221301;34;33563;-83
2023/09/04 14:31:19;;;;;;;1.62;1.52;;;;;;;26.69;32.01;101052.19;5220674;34;34638;-83
2023/09/04 14:34:23;;;;;;;4.95;1.45;;;;;;;26.51;32.18;101049.06;5214844;34;33514;-83
2023/09/04 14:37:25;;;;;;;3.53;1.80;;;;;;;26.46;33.18;101056.16;5228360;34;34536;-83
2023/09/04 14:40:42;;;;;;;2.03;1.70;;;;;;;26.54;33.43;101048.53;5237663;34;34102;-83
2023/09/04 14:43:45;;;;;;;2.05;1.85;;;;;;;26.30;33.88;101051.66;5228539;34;33859;-82
2023/09/04 14:46:48;;;;;;;2.00;1.77;;;;;;;25.90;33.74;101055.78;5241058;34;35231;-82
2023/09/04 14:49:51;;;;;;;2.37;1.67;;;;;;;25.76;33.94;101055.34;5212488;34;33355;-82
2023/09/04 14:52:54;;;;;;;2.28;1.40;;;;;;;25.23;35.07;101057.06;5224598;34;33987;-83
2023/09/04 14:56:00;;;;;;;3.33;1.70;;;;;;;25.19;35.48;101050.41;5230575;34;34667;-83
2023/09/04 14:59:03;;;;;;;1.75;1.65;;;;;;;24.97;35.92;101047.63;5224256;34;33403;-83
2023/09/04 15:02:06;;;;;;;2.53;1.80;;;;;;;24.74;36.50;101054.22;5237604;34;33894;-82
2023/09/04 15:05:09;;;;;;;3.58;2.00;;;;;;;24.72;37.13;101052.84;5237613;34;34431;-83
2023/09/04 15:08:15;;;;;;;3.92;2.00;;;;;;;24.59;36.76;101048.53;5213444;34;33819;-83
2023/09/04 15:11:18;;;;;;;1.62;1.52;;;;;;;24.57;36.36;101059.81;5237178;34;33595;-83
2023/09/04 15:14:21;;;;;;;2.97;1.67;;;;;;;24.56;35.85;101060.87;5224577;34;33763;-83
2023/09/04 15:17:24;;;;;;;7.07;1.70;;;;;;;24.54;36.29;101063.06;5202939;34;264116;-83
2023/09/04 15:20:27;;;;;;;2.05;1.55;;;;;;;24.38;37.31;101059.22;5205031;34;34787;-83
2023/09/04 15:23:30;;;;;;;4.05;2.10;;;;;;;24.23;38.52;101064.50;5202057;34;34029;-83
2023/09/04 15:26:35;;;;;;;2.40;1.80;;;;;;;24.03;39.05;101070.50;5213185;34;34746;-83
2023/09/04 15:29:38;;;;;;;2.35;1.90;;;;;;;23.97;39.81;101071.50;5224870;34;33773;-83
2023/09/04 15:32:41;;;;;;;2.40;1.87;;;;;;;23.99;39.54;101070.19;5224727;34;34602;-83
2023/09/04 15:35:47;;;;;;;3.28;1.77;;;;;;;23.96;39.56;101067.94;5224767;34;34704;-83
2023/09/04 15:38:54;;;;;;;1.70;1.60;;;;;;;23.88;40.13;101067.53;5224949;34;33610;-84
2023/09/04 15:41:57;;;;;;;2.33;1.90;;;;;;;23.91;40.77;101078.84;5213955;34;33736;-84
2023/09/04 15:45:00;;;;;;;2.37;1.92;;;;;;;23.74;40.24;101067.00;5224421;34;33805;-83
2023/09/04 15:48:04;;;;;;;2.22;2.03;;;;;;;23.70;40.24;101076.84;5237022;34;34736;-84
2023/09/04 15:51:07;;;;;;;2.20;1.70;;;;;;;23.63;39.36;101068.69;5213205;34;34437;-84
2023/09/04 15:54:10;;;;;;;2.17;1.70;;;;;;;23.43;39.57;101080.19;5213265;34;34765;-84
